createdAt,value
2022-12-07T00:01:23.493Z,30.90
2022-12-07T00:04:12.207Z,29.00
2022-12-07T00:06:57.513Z,28.63
2022-12-07T00:09:44.102Z,31.60
2022-12-07T00:12:29.815Z,34.30
2022-12-07T00:15:15.253Z,39.50
2022-12-07T00:18:00.520Z,37.97
2022-12-07T00:20:45.844Z,38.25
2022-12-07T00:23:31.520Z,42.42
2022-12-07T00:26:21.612Z,43.60
2022-12-07T00:29:08.784Z,43.13
2022-12-07T00:31:54.527Z,46.47
2022-12-07T00:34:39.966Z,41.35
2022-12-07T00:37:25.195Z,42.53
2022-12-07T00:40:11.198Z,43.05
2022-12-07T00:42:57.777Z,38.50
2022-12-07T00:45:43.400Z,36.90
2022-12-07T00:48:29.530Z,37.65
2022-12-07T00:51:17.287Z,35.97
2022-12-07T00:54:04.655Z,35.53
2022-12-07T00:56:49.852Z,32.90
2022-12-07T00:59:37.893Z,31.02
2022-12-07T01:02:23.782Z,31.58
2022-12-07T01:05:09.742Z,31.10
2022-12-07T01:07:55.357Z,27.95
2022-12-07T01:10:40.983Z,28.33
2022-12-07T01:13:26.139Z,31.80
2022-12-07T01:16:15.486Z,26.08
2022-12-07T01:19:01.691Z,23.90
2022-12-07T01:21:47.420Z,23.77
2022-12-07T01:24:32.678Z,25.48
2022-12-07T01:27:18.044Z,23.55
2022-12-07T01:30:07.547Z,21.13
2022-12-07T01:32:54.461Z,20.73
2022-12-07T01:35:39.696Z,19.50
2022-12-07T01:38:24.936Z,20.70
2022-12-07T01:41:10.469Z,22.02
2022-12-07T01:44:20.998Z,21.13
2022-12-07T01:47:06.507Z,20.27
2022-12-07T01:49:53.579Z,20.63
2022-12-07T01:52:40.738Z,19.00
2022-12-07T01:55:27.200Z,21.63
2022-12-07T01:58:14.626Z,18.38
2022-12-07T02:01:00.336Z,20.55
2022-12-07T02:03:47.022Z,18.65
2022-12-07T02:06:35.708Z,19.70
2022-12-07T02:09:21.174Z,21.85
2022-12-07T02:12:07.278Z,18.42
2022-12-07T02:14:53.495Z,18.27
2022-12-07T02:17:49.303Z,20.45
2022-12-07T02:20:39.078Z,20.13
2022-12-07T02:23:46.003Z,19.98
2022-12-07T02:27:13.591Z,20.98
2022-12-07T02:30:03.681Z,19.63
2022-12-07T02:32:55.000Z,20.38
2022-12-07T02:35:44.305Z,19.05
2022-12-07T02:38:35.064Z,19.75
2022-12-07T02:41:24.586Z,19.80
2022-12-07T02:44:13.907Z,20.43
2022-12-07T02:47:04.931Z,21.58
2022-12-07T02:49:50.711Z,21.25
2022-12-07T02:52:35.960Z,21.27
2022-12-07T02:55:27.196Z,21.83
2022-12-07T02:58:27.912Z,20.70
2022-12-07T03:01:21.582Z,20.23
2022-12-07T03:04:22.084Z,19.70
2022-12-07T03:07:19.239Z,20.73
2022-12-07T03:10:11.274Z,22.02
2022-12-07T03:13:06.222Z,23.73
2022-12-07T03:15:58.548Z,21.23
2022-12-07T03:18:48.585Z,19.60
2022-12-07T03:21:39.751Z,20.13
2022-12-07T03:24:28.501Z,20.98
2022-12-07T03:27:17.886Z,21.20
2022-12-07T03:30:06.933Z,21.05
2022-12-07T03:32:58.252Z,21.88
2022-12-07T03:35:46.001Z,21.15
2022-12-07T03:38:36.817Z,20.58
2022-12-07T03:41:26.109Z,21.88
2022-12-07T03:44:11.592Z,18.83
2022-12-07T03:47:03.635Z,20.23
2022-12-07T03:49:54.968Z,17.58
2022-12-07T03:52:43.724Z,18.70
2022-12-07T03:55:33.567Z,17.50
2022-12-07T03:58:22.730Z,21.17
2022-12-07T04:01:08.378Z,17.38
2022-12-07T04:03:53.755Z,16.25
2022-12-07T04:06:39.593Z,16.15
2022-12-07T04:09:25.106Z,15.57
2022-12-07T04:12:12.190Z,15.23
2022-12-07T04:14:57.804Z,16.42
2022-12-07T04:17:43.125Z,15.40
2022-12-07T04:20:28.495Z,14.30
2022-12-07T04:23:14.530Z,14.25
2022-12-07T04:26:02.617Z,15.80
2022-12-07T04:28:49.244Z,14.10
2022-12-07T04:31:34.847Z,13.18
2022-12-07T04:34:21.311Z,14.05
2022-12-07T04:37:06.852Z,15.57
2022-12-07T04:39:52.019Z,16.00
2022-12-07T04:42:37.369Z,15.30
2022-12-07T04:45:23.847Z,14.38
2022-12-07T04:48:09.148Z,14.25
2022-12-07T04:50:54.783Z,14.80
2022-12-07T04:53:40.294Z,13.90
2022-12-07T04:56:27.137Z,13.38
2022-12-07T04:59:13.380Z,14.45
2022-12-07T05:02:01.302Z,13.70
2022-12-07T05:04:47.057Z,14.77
2022-12-07T05:07:32.509Z,14.35
2022-12-07T05:10:18.587Z,14.23
2022-12-07T05:13:03.794Z,15.02
2022-12-07T05:15:49.544Z,12.75
2022-12-07T05:18:36.388Z,13.43
2022-12-07T05:21:22.708Z,14.48
2022-12-07T05:24:10.958Z,12.35
2022-12-07T05:26:56.354Z,14.02
2022-12-07T05:29:41.813Z,13.63
2022-12-07T05:32:27.685Z,13.32
2022-12-07T05:35:14.514Z,15.25
2022-12-07T05:37:59.990Z,14.80
2022-12-07T05:40:45.542Z,14.68
2022-12-07T05:43:31.360Z,16.90
2022-12-07T05:46:17.018Z,17.57
2022-12-07T05:49:03.451Z,17.60
2022-12-07T05:51:50.419Z,17.55
2022-12-07T05:54:36.139Z,19.45
2022-12-07T05:57:21.884Z,20.92
2022-12-07T06:00:08.678Z,19.27
2022-12-07T06:02:54.396Z,22.60
2022-12-07T06:05:40.096Z,21.95
2022-12-07T06:08:26.718Z,24.52
2022-12-07T06:11:31.222Z,27.17
2022-12-07T06:14:16.478Z,28.13
2022-12-07T06:17:02.046Z,30.30
2022-12-07T06:19:49.263Z,33.40
2022-12-07T06:22:34.929Z,32.47
2022-12-07T06:25:21.776Z,38.45
2022-12-07T06:28:07.009Z,36.50
2022-12-07T06:30:58.367Z,38.63
2022-12-07T06:33:43.722Z,37.55
2022-12-07T06:36:29.740Z,35.33
2022-12-07T06:39:15.469Z,34.97
2022-12-07T06:42:02.939Z,35.00
2022-12-07T06:44:48.600Z,33.85
2022-12-07T06:47:42.468Z,38.83
2022-12-07T06:50:40.386Z,36.72
2022-12-07T06:53:26.254Z,32.72
2022-12-07T06:56:11.782Z,32.57
2022-12-07T06:58:58.784Z,34.90
2022-12-07T07:01:44.357Z,39.67
2022-12-07T07:04:29.729Z,39.45
2022-12-07T07:07:15.151Z,39.75
2022-12-07T07:10:02.146Z,38.33
2022-12-07T07:12:47.924Z,38.67
2022-12-07T07:15:39.416Z,31.33
2022-12-07T07:18:25.482Z,35.50
2022-12-07T07:21:11.018Z,30.98
2022-12-07T07:23:57.553Z,28.58
2022-12-07T07:26:43.194Z,31.38
2022-12-07T07:29:28.438Z,28.42
2022-12-07T07:32:16.093Z,28.25
2022-12-07T07:35:01.603Z,30.05
2022-12-07T07:37:47.120Z,28.77
2022-12-07T07:40:34.317Z,29.10
2022-12-07T07:43:22.052Z,27.98
2022-12-07T07:46:08.086Z,27.67
2022-12-07T07:48:55.253Z,26.45
2022-12-07T07:51:41.297Z,27.07
2022-12-07T07:54:28.995Z,27.30
2022-12-07T07:57:23.769Z,26.33
2022-12-07T08:00:14.607Z,24.13
2022-12-07T08:03:09.398Z,25.70
2022-12-07T08:05:57.590Z,24.30
2022-12-07T08:08:43.434Z,31.60
2022-12-07T08:11:29.165Z,28.63
2022-12-07T08:14:15.082Z,29.33
2022-12-07T08:17:01.200Z,29.63
2022-12-07T08:19:46.770Z,33.80
2022-12-07T08:22:33.673Z,40.08
2022-12-07T08:25:19.576Z,38.58
2022-12-07T08:28:05.505Z,37.72
2022-12-07T08:30:51.078Z,43.10
2022-12-07T08:33:37.539Z,37.05
2022-12-07T08:36:24.079Z,40.67
2022-12-07T08:42:16.893Z,40.28
2022-12-07T08:45:02.465Z,39.08
2022-12-07T08:47:51.797Z,48.85
2022-12-07T08:50:38.576Z,38.95
2022-12-07T08:53:24.510Z,45.38
2022-12-07T08:56:12.018Z,42.33
2022-12-07T08:58:59.315Z,36.75
2022-12-07T09:01:45.020Z,40.00
2022-12-07T09:04:30.941Z,38.65
2022-12-07T09:07:17.797Z,40.58
2022-12-07T09:10:12.716Z,37.35
2022-12-07T09:13:02.363Z,36.13
2022-12-07T09:15:47.742Z,36.90
2022-12-07T09:18:34.557Z,33.83
2022-12-07T09:21:20.442Z,34.67
2022-12-07T09:24:07.855Z,35.80
2022-12-07T09:26:53.324Z,34.28
2022-12-07T09:29:40.367Z,32.17
2022-12-07T09:32:26.018Z,33.50
2022-12-07T09:35:11.674Z,32.13
2022-12-07T09:37:57.308Z,33.22
2022-12-07T09:40:44.851Z,29.60
2022-12-07T09:43:30.499Z,33.92
2022-12-07T09:46:20.159Z,31.00
2022-12-07T09:49:06.438Z,29.25
2022-12-07T09:52:02.525Z,27.60
2022-12-07T09:54:51.075Z,26.92
2022-12-07T09:57:38.250Z,26.63
2022-12-07T10:00:25.228Z,27.65
2022-12-07T10:03:13.287Z,26.15
2022-12-07T10:05:59.026Z,24.02
2022-12-07T10:08:44.959Z,24.30
2022-12-07T10:11:31.330Z,25.70
2022-12-07T10:14:16.736Z,22.70
2022-12-07T10:17:02.641Z,22.50
2022-12-07T10:19:49.731Z,23.35
2022-12-07T10:22:35.091Z,22.05
2022-12-07T10:25:22.451Z,23.03
2022-12-07T10:28:15.812Z,24.95
2022-12-07T10:31:05.809Z,24.60
2022-12-07T10:33:53.588Z,22.95
2022-12-07T10:36:44.597Z,22.73
2022-12-07T10:39:30.083Z,23.93
2022-12-07T10:42:20.635Z,24.77
2022-12-07T10:45:13.553Z,21.30
2022-12-07T10:48:05.464Z,21.73
2022-12-07T10:51:06.382Z,21.63
2022-12-07T10:54:09.197Z,20.67
2022-12-07T10:57:24.220Z,20.02
2022-12-07T11:00:16.864Z,23.67
2022-12-07T11:03:47.112Z,21.90
2022-12-07T11:06:39.078Z,21.10
2022-12-07T11:10:13.032Z,22.83
2022-12-07T11:13:16.734Z,20.85
2022-12-07T11:16:36.254Z,21.77
2022-12-07T11:19:36.510Z,23.73
2022-12-07T11:22:34.360Z,22.42
2022-12-07T11:25:31.482Z,20.75
2022-12-07T11:28:32.540Z,22.67
2022-12-07T11:31:29.745Z,21.67
2022-12-07T11:34:26.269Z,22.67
2022-12-07T11:37:16.006Z,23.00
2022-12-07T11:40:05.963Z,22.73
2022-12-07T11:42:57.030Z,22.80
2022-12-07T11:45:46.457Z,21.92
2022-12-07T11:48:38.247Z,22.17
2022-12-07T11:51:29.017Z,23.38
2022-12-07T11:54:22.110Z,24.33
2022-12-07T11:57:20.027Z,21.40
2022-12-07T12:00:14.045Z,21.48
2022-12-07T12:03:05.383Z,20.70
2022-12-07T12:05:51.303Z,21.83
2022-12-07T12:15:22.284Z,22.40
2022-12-07T12:18:23.366Z,20.08
2022-12-07T12:21:12.969Z,21.80
2022-12-07T12:24:01.657Z,18.77
2022-12-07T12:26:52.889Z,23.10
2022-12-07T12:29:41.658Z,20.95
2022-12-07T12:32:39.495Z,21.67
2022-12-07T12:35:31.612Z,18.27
2022-12-07T12:38:34.331Z,20.40
2022-12-07T12:42:02.541Z,18.38
2022-12-07T12:45:18.714Z,18.70
2022-12-07T12:48:28.087Z,20.83
2022-12-07T12:51:38.107Z,21.02
2022-12-07T12:54:26.681Z,17.83
2022-12-07T12:57:19.327Z,19.65
2022-12-07T13:00:18.293Z,19.33
2022-12-07T13:03:08.859Z,17.70
2022-12-07T13:06:34.658Z,15.50
2022-12-07T13:09:24.133Z,18.93
2022-12-07T13:12:15.427Z,17.80
2022-12-07T13:15:01.258Z,14.93
2022-12-07T13:18:04.127Z,16.90
2022-12-07T13:20:56.390Z,16.38
2022-12-07T13:23:59.310Z,17.10
2022-12-07T13:26:45.851Z,13.38
2022-12-07T13:29:38.084Z,15.23
2022-12-07T13:32:26.351Z,14.45
2022-12-07T13:35:35.682Z,13.98
2022-12-07T13:38:28.292Z,13.60
2022-12-07T13:41:16.725Z,16.67
2022-12-07T13:44:05.183Z,13.45
2022-12-07T13:46:58.367Z,15.85
2022-12-07T13:49:53.263Z,12.68
2022-12-07T13:52:45.645Z,13.57
2022-12-07T13:55:33.791Z,15.20
2022-12-07T13:58:19.318Z,14.13
2022-12-07T14:01:07.867Z,12.85
2022-12-07T14:03:56.010Z,13.38
2022-12-07T14:06:57.554Z,13.03
2022-12-07T14:09:42.811Z,13.95
2022-12-07T14:12:43.713Z,13.07
2022-12-07T14:15:31.657Z,14.80
2022-12-07T14:18:28.842Z,12.77
2022-12-07T14:21:19.868Z,13.87
2022-12-07T14:24:19.383Z,14.73
2022-12-07T14:27:04.821Z,15.65
2022-12-07T14:29:52.306Z,12.95
2022-12-07T14:32:38.988Z,14.60
2022-12-07T14:35:24.905Z,15.40
2022-12-07T14:38:10.842Z,14.52
2022-12-07T14:41:17.423Z,15.32
2022-12-07T14:44:22.386Z,16.30
2022-12-07T14:50:20.079Z,14.07
2022-12-07T14:53:26.921Z,16.13
2022-12-07T14:56:12.871Z,14.70
2022-12-07T14:58:58.666Z,14.45
2022-12-07T15:01:44.213Z,14.70
2022-12-07T15:04:31.080Z,17.92
2022-12-07T15:07:21.076Z,16.20
2022-12-07T15:10:22.109Z,15.57
2022-12-07T15:13:28.359Z,16.52
2022-12-07T15:19:30.010Z,15.30
2022-12-07T15:22:17.563Z,17.63
2022-12-07T15:25:05.384Z,19.48
2022-12-07T15:27:52.127Z,19.52
2022-12-07T15:30:39.007Z,21.35
2022-12-07T15:33:24.708Z,18.43
2022-12-07T15:36:19.249Z,18.98
2022-12-07T15:39:14.090Z,19.30
2022-12-07T15:42:03.365Z,21.40
2022-12-07T15:45:07.413Z,19.48
2022-12-07T15:48:26.747Z,22.73
2022-12-07T15:51:04.413Z,21.83
2022-12-07T15:53:49.600Z,21.83
2022-12-07T15:56:36.384Z,25.75
2022-12-07T15:59:21.893Z,25.50
2022-12-07T16:02:07.305Z,27.45
2022-12-07T16:04:54.095Z,27.25
2022-12-07T16:07:39.295Z,28.80
2022-12-07T16:10:24.992Z,31.73
2022-12-07T16:13:12.457Z,35.25
2022-12-07T16:15:57.714Z,33.23
2022-12-07T16:18:43.935Z,36.47
2022-12-07T16:21:29.715Z,38.25
2022-12-07T16:24:17.415Z,36.00
2022-12-07T16:27:02.825Z,37.13
2022-12-07T16:29:49.519Z,38.70
2022-12-07T16:32:34.947Z,35.10
2022-12-07T16:35:20.507Z,35.85
2022-12-07T16:38:06.026Z,37.05
2022-12-07T16:40:51.929Z,35.03
2022-12-07T16:43:38.010Z,36.58
2022-12-07T16:46:25.702Z,39.42
2022-12-07T16:49:13.950Z,34.38
2022-12-07T16:55:06.065Z,32.67
2022-12-07T16:57:51.904Z,35.87
2022-12-07T17:00:37.797Z,37.78
2022-12-07T17:03:25.077Z,38.53
2022-12-07T17:06:15.669Z,38.58
2022-12-07T17:09:01.713Z,37.78
2022-12-07T17:11:47.356Z,37.70
2022-12-07T17:14:51.137Z,39.78
2022-12-07T17:17:36.626Z,34.67
2022-12-07T17:20:25.657Z,36.72
2022-12-07T17:23:12.386Z,36.78
2022-12-07T17:26:05.737Z,36.33
2022-12-07T17:28:51.741Z,36.40
2022-12-07T17:31:37.376Z,32.85
2022-12-07T17:34:23.351Z,36.17
2022-12-07T17:37:28.391Z,33.05
2022-12-07T17:40:14.437Z,35.27
2022-12-07T17:42:59.995Z,35.45
2022-12-07T17:45:47.609Z,35.70
2022-12-07T17:48:35.187Z,33.42
2022-12-07T17:51:39.445Z,37.03
2022-12-07T17:54:26.601Z,31.47
2022-12-07T17:57:13.236Z,33.25
2022-12-07T17:59:59.182Z,29.38
2022-12-07T18:02:44.839Z,33.45
2022-12-07T18:05:30.499Z,31.70
2022-12-07T18:08:17.096Z,30.25
2022-12-07T18:11:05.339Z,32.72
2022-12-07T18:13:52.657Z,31.92
2022-12-07T18:16:38.264Z,43.60
2022-12-07T18:19:24.381Z,31.27
2022-12-07T18:22:11.346Z,37.53
2022-12-07T18:25:03.666Z,34.13
2022-12-07T18:27:52.485Z,36.35
2022-12-07T18:31:13.819Z,38.30
2022-12-07T18:33:49.044Z,38.72
2022-12-07T18:36:35.386Z,49.90
2022-12-07T18:39:22.330Z,47.40
2022-12-07T18:42:14.754Z,48.15
2022-12-07T18:45:02.437Z,48.25
2022-12-07T18:47:50.430Z,47.30
2022-12-07T18:50:39.823Z,50.20
2022-12-07T18:53:27.625Z,48.97
2022-12-07T18:56:26.981Z,50.58
2022-12-07T18:59:33.528Z,54.40
2022-12-07T19:02:24.609Z,55.42
2022-12-07T19:05:11.344Z,51.33
2022-12-07T19:07:59.034Z,53.05
2022-12-07T19:11:23.686Z,53.85
2022-12-07T19:14:10.689Z,53.42
2022-12-07T19:17:01.272Z,59.42
2022-12-07T19:19:49.636Z,52.78
2022-12-07T19:22:36.109Z,50.58
2022-12-07T19:25:22.688Z,60.25
2022-12-07T19:28:10.410Z,57.17
2022-12-07T19:30:57.871Z,55.72
2022-12-07T19:33:45.274Z,60.13
2022-12-07T19:36:34.516Z,57.40
2022-12-07T19:39:27.263Z,60.63
2022-12-07T19:42:18.132Z,66.13
2022-12-07T19:45:09.897Z,63.42
2022-12-07T19:47:56.800Z,66.07
2022-12-07T19:50:43.786Z,66.65
2022-12-07T19:53:34.998Z,62.70
2022-12-07T19:56:39.149Z,60.67
2022-12-07T19:59:28.889Z,62.95
2022-12-07T20:02:30.901Z,58.60
2022-12-07T20:05:26.458Z,61.75
2022-12-07T20:08:13.424Z,64.35
2022-12-07T20:11:37.140Z,56.40
2022-12-07T20:14:24.565Z,53.67
2022-12-07T20:17:11.327Z,55.63
2022-12-07T20:19:57.661Z,47.90
2022-12-07T20:22:44.612Z,51.22
2022-12-07T20:25:33.035Z,50.17
2022-12-07T20:28:22.143Z,49.00
2022-12-07T20:31:08.331Z,47.13
2022-12-07T20:33:56.290Z,44.88
2022-12-07T20:36:43.840Z,40.13
2022-12-07T20:39:31.903Z,44.03
2022-12-07T20:42:37.544Z,43.15
2022-12-07T20:45:25.454Z,37.63
2022-12-07T20:48:16.698Z,34.38
2022-12-07T20:51:06.370Z,37.17
2022-12-07T20:53:52.980Z,37.00
2022-12-07T20:56:39.134Z,40.00
2022-12-07T20:59:26.586Z,35.87
2022-12-07T21:02:15.498Z,33.95
2022-12-07T21:05:02.577Z,37.25
2022-12-07T21:07:49.488Z,32.58
2022-12-07T21:10:35.394Z,33.97
2022-12-07T21:13:20.969Z,33.03
2022-12-07T21:16:14.126Z,32.33
2022-12-07T21:19:02.910Z,31.33
2022-12-07T21:21:48.585Z,29.40
2022-12-07T21:24:34.042Z,32.35
2022-12-07T21:27:19.490Z,31.90
2022-12-07T21:30:05.894Z,30.80
2022-12-07T21:32:51.208Z,31.75
2022-12-07T21:35:40.055Z,30.95
2022-12-07T21:38:25.857Z,30.67
2022-12-07T21:41:13.276Z,32.57
2022-12-07T21:44:00.387Z,37.88
2022-12-07T21:46:46.185Z,36.72
2022-12-07T21:49:31.866Z,34.40
2022-12-07T21:52:19.069Z,38.47
2022-12-07T21:55:05.245Z,42.27
2022-12-07T21:57:50.734Z,40.92
2022-12-07T22:00:36.394Z,48.70
2022-12-07T22:03:22.214Z,50.25
2022-12-07T22:06:09.807Z,57.33
2022-12-07T22:08:57.468Z,54.03
2022-12-07T22:11:43.524Z,56.53
2022-12-07T22:14:47.995Z,57.70
2022-12-07T22:17:33.504Z,58.85
2022-12-07T22:20:20.127Z,54.53
2022-12-07T22:23:05.637Z,57.33
2022-12-07T22:25:52.254Z,56.40
2022-12-07T22:28:38.330Z,53.13
2022-12-07T22:31:24.489Z,50.67
2022-12-07T22:34:15.724Z,53.45
2022-12-07T22:37:01.109Z,50.83
2022-12-07T22:39:47.048Z,49.50
2022-12-07T22:42:34.037Z,46.65
2022-12-07T22:45:19.613Z,46.28
2022-12-07T22:48:05.751Z,46.40
2022-12-07T22:50:52.780Z,43.60
2022-12-07T22:53:38.023Z,40.70
2022-12-07T22:56:23.569Z,40.05
2022-12-07T22:59:13.585Z,40.70
2022-12-07T23:01:59.129Z,38.67
2022-12-07T23:04:44.494Z,38.70
2022-12-07T23:07:33.351Z,34.13
2022-12-07T23:10:18.903Z,33.97
2022-12-07T23:13:23.357Z,36.75
2022-12-07T23:16:13.045Z,34.53
2022-12-07T23:18:58.799Z,36.55
2022-12-07T23:21:44.942Z,34.45
2022-12-07T23:24:31.798Z,36.65
2022-12-07T23:27:17.400Z,29.88
2022-12-07T23:30:03.163Z,31.00
2022-12-07T23:32:49.801Z,29.90
2022-12-07T23:35:35.002Z,30.55
2022-12-07T23:38:20.257Z,28.38
2022-12-07T23:41:07.731Z,30.65
2022-12-07T23:43:53.725Z,29.30
2022-12-07T23:46:39.456Z,28.50
2022-12-07T23:49:26.252Z,31.83
2022-12-07T23:52:11.679Z,30.13
2022-12-07T23:54:57.227Z,31.52
2022-12-07T23:57:42.841Z,27.92
